Time;durP1;ratioP1;P1;durP2;ratioP2;P2;SDS_P1;SDS_P2;PMS_P1;PMS_P2;Temp;Humidity;BMP_temperature;BMP_pressure;BME280_temperature;BME280_humidity;BME280_pressure;Samples;Min_cycle;Max_cycle;Signal;HPM_P1;HPM_P2
2022/03/31 00:01:14;;;;;;;28.80;20.87;;;7.90;99.90;;;;;;5011316;28;20562;-71
2022/03/31 00:03:40;;;;;;;29.93;21.20;;;7.90;99.90;;;;;;5012583;28;20438;-71
2022/03/31 00:06:07;;;;;;;26.80;21.33;;;7.80;99.90;;;;;;5010808;28;20940;-71
2022/03/31 00:08:34;;;;;;;31.17;21.30;;;7.80;99.90;;;;;;5011652;28;20464;-71
2022/03/31 00:11:01;;;;;;;32.77;23.43;;;7.80;99.90;;;;;;5010951;28;20569;-70
2022/03/31 00:13:30;;;;;;;32.10;22.57;;;7.80;99.90;;;;;;5011319;28;20889;-72
2022/03/31 00:15:58;;;;;;;32.40;22.57;;;7.90;99.90;;;;;;5010581;28;20466;-71
2022/03/31 00:18:27;;;;;;;28.67;21.80;;;7.90;99.90;;;;;;5011307;28;20457;-71
2022/03/31 00:20:54;;;;;;;29.30;21.27;;;7.90;99.90;;;;;;5010860;28;20466;-72
2022/03/31 00:23:21;;;;;;;29.53;21.97;;;7.90;99.90;;;;;;5010726;28;20449;-71
2022/03/31 00:25:48;;;;;;;30.40;22.87;;;7.90;99.90;;;;;;5010408;28;20449;-71
2022/03/31 00:28:15;;;;;;;30.00;21.30;;;8.00;99.90;;;;;;5011243;28;20512;-71
2022/03/31 00:30:43;;;;;;;26.83;20.60;;;8.00;99.90;;;;;;5011039;28;20553;-71
2022/03/31 00:33:12;;;;;;;29.30;21.33;;;8.00;99.90;;;;;;5011145;28;20572;-71
2022/03/31 00:35:39;;;;;;;27.03;19.30;;;8.00;99.90;;;;;;5010503;28;20464;-71
2022/03/31 00:38:06;;;;;;;24.53;19.83;;;8.00;99.90;;;;;;5011057;28;20454;-72
2022/03/31 00:40:33;;;;;;;25.37;18.27;;;7.90;99.90;;;;;;5010882;28;20464;-72
2022/03/31 00:43:00;;;;;;;25.20;18.57;;;7.80;99.90;;;;;;5010601;28;20445;-70
2022/03/31 00:45:29;;;;;;;25.80;18.67;;;7.80;99.90;;;;;;5010210;28;20454;-72
2022/03/31 00:47:57;;;;;;;25.50;19.00;;;7.70;99.90;;;;;;5011267;28;20545;-71
2022/03/31 00:50:26;;;;;;;27.47;18.63;;;7.70;99.90;;;;;;5010956;28;20446;-71
2022/03/31 00:52:53;;;;;;;29.37;20.77;;;7.70;99.90;;;;;;5010379;28;20508;-72
2022/03/31 00:55:20;;;;;;;26.60;19.13;;;7.70;99.90;;;;;;5010263;28;20866;-71
2022/03/31 00:57:48;;;;;;;22.93;16.70;;;7.60;99.90;;;;;;5010779;28;20524;-72
2022/03/31 01:00:16;;;;;;;25.07;16.97;;;7.60;99.90;;;;;;5010776;28;20533;-71
2022/03/31 01:02:44;;;;;;;23.00;17.80;;;7.50;99.90;;;;;;5011494;28;20480;-72
2022/03/31 01:05:15;;;;;;;24.73;17.63;;;7.50;99.90;;;;;;5010185;28;20458;-72
2022/03/31 01:07:42;;;;;;;22.43;16.83;;;7.40;99.90;;;;;;5010960;28;20450;-72
2022/03/31 01:10:11;;;;;;;22.50;15.90;;;7.40;99.90;;;;;;5010790;28;20442;-72
2022/03/31 01:12:38;;;;;;;24.90;16.80;;;7.30;99.90;;;;;;5010146;28;20476;-71
2022/03/31 01:15:10;;;;;;;22.70;16.40;;;7.30;99.90;;;;;;5009979;28;20487;-73
2022/03/31 01:17:39;;;;;;;21.03;17.70;;;7.20;99.90;;;;;;5010767;28;20555;-73
2022/03/31 01:20:08;;;;;;;25.20;17.93;;;7.20;99.90;;;;;;5010617;28;20442;-72
2022/03/31 01:22:37;;;;;;;21.90;16.13;;;7.20;99.90;;;;;;5010131;28;20505;-72
2022/03/31 01:25:07;;;;;;;24.47;17.37;;;7.10;99.90;;;;;;5009673;28;20468;-72
2022/03/31 01:27:36;;;;;;;21.30;15.53;;;7.10;99.90;;;;;;5010724;28;20446;-72
2022/03/31 01:30:05;;;;;;;23.43;17.50;;;7.10;99.90;;;;;;5010833;28;20520;-72
2022/03/31 01:32:32;;;;;;;23.87;17.30;;;7.10;99.90;;;;;;5009949;28;20541;-73
2022/03/31 01:34:59;;;;;;;23.10;17.10;;;7.00;99.90;;;;;;5009920;28;20486;-72
2022/03/31 01:37:25;;;;;;;23.60;17.43;;;7.00;99.90;;;;;;5010466;28;20448;-72
2022/03/31 01:39:52;;;;;;;21.23;17.00;;;7.00;99.90;;;;;;5010533;28;20465;-72
2022/03/31 01:42:22;;;;;;;21.70;16.13;;;6.90;99.90;;;;;;5010185;28;20484;-71
2022/03/31 01:44:49;;;;;;;22.03;16.20;;;6.80;99.90;;;;;;5009547;28;20549;-72
2022/03/31 01:47:16;;;;;;;21.90;15.70;;;6.80;99.90;;;;;;5010358;28;20449;-72
2022/03/31 01:49:43;;;;;;;22.20;17.10;;;6.80;99.90;;;;;;5010220;28;20472;-73
2022/03/31 01:52:10;;;;;;;22.80;15.77;;;6.80;99.90;;;;;;5009715;28;21135;-71
2022/03/31 01:54:37;;;;;;;22.43;17.40;;;6.80;99.90;;;;;;5009209;28;20485;-71
2022/03/31 01:57:05;;;;;;;23.57;16.27;;;6.80;99.90;;;;;;5010159;28;20446;-70
2022/03/31 01:59:37;;;;;;;24.17;17.97;;;6.80;99.90;;;;;;5010156;28;20485;-72
2022/03/31 02:02:05;;;;;;;20.23;15.97;;;6.80;99.90;;;;;;5009434;28;21170;-72
2022/03/31 02:04:32;;;;;;;21.30;16.80;;;6.80;99.90;;;;;;5009106;28;20474;-72
2022/03/31 02:06:59;;;;;;;23.93;16.80;;;6.80;99.90;;;;;;5009799;28;20441;-71
2022/03/31 02:09:27;;;;;;;23.20;16.30;;;6.80;99.90;;;;;;5009892;28;20999;-72
2022/03/31 02:11:53;;;;;;;24.97;18.47;;;6.80;99.90;;;;;;5009273;28;21010;-72
2022/03/31 02:14:22;;;;;;;22.40;18.20;;;6.70;99.90;;;;;;5008958;28;21311;-71
2022/03/31 02:16:50;;;;;;;23.77;17.63;;;6.70;99.90;;;;;;5009847;28;20446;-71
2022/03/31 02:19:18;;;;;;;20.63;16.10;;;6.70;99.90;;;;;;5009638;28;20536;-73
2022/03/31 02:21:46;;;;;;;22.97;17.30;;;6.60;99.90;;;;;;5009447;28;20901;-72
2022/03/31 02:24:12;;;;;;;20.10;15.90;;;6.60;99.90;;;;;;5009057;28;20450;-72
2022/03/31 02:26:40;;;;;;;23.83;17.40;;;6.60;99.90;;;;;;5009681;28;20445;-71
2022/03/31 02:29:07;;;;;;;23.67;17.97;;;6.50;99.90;;;;;;5010126;28;20458;-72
2022/03/31 02:31:34;;;;;;;24.17;19.27;;;6.50;99.90;;;;;;5008994;28;20843;-70
2022/03/31 02:34:02;;;;;;;24.70;19.17;;;6.50;99.90;;;;;;5009469;28;21019;-71
2022/03/31 02:36:30;;;;;;;21.43;17.60;;;6.40;99.90;;;;;;5009852;28;20453;-71
2022/03/31 02:38:57;;;;;;;24.50;20.20;;;6.40;99.90;;;;;;5009631;28;20461;-72
2022/03/31 02:41:24;;;;;;;25.90;19.03;;;6.30;99.90;;;;;;5009215;28;20468;-70
2022/03/31 02:43:52;;;;;;;27.50;18.73;;;6.30;99.90;;;;;;5009674;28;20445;-72
2022/03/31 02:46:19;;;;;;;24.40;17.27;;;6.30;99.90;;;;;;5011588;28;20458;-71
2022/03/31 02:48:46;;;;;;;23.80;17.83;;;6.30;99.90;;;;;;5013274;28;20485;-71
2022/03/31 02:51:14;;;;;;;25.87;19.93;;;6.30;99.90;;;;;;5013041;28;20472;-71
2022/03/31 02:56:25;;;;;;;24.23;17.60;;;6.30;99.90;;;;;;5012717;28;21050;-71
2022/03/31 02:58:51;;;;;;;23.40;18.90;;;6.30;99.90;;;;;;5013091;28;20449;-71
2022/03/31 03:01:20;;;;;;;23.03;19.13;;;6.20;99.90;;;;;;5012729;28;20461;-71
2022/03/31 03:03:46;;;;;;;29.40;21.53;;;6.20;99.90;;;;;;5013124;28;20457;-71
2022/03/31 03:06:15;;;;;;;26.40;19.73;;;6.20;99.90;;;;;;5012646;28;20895;-71
2022/03/31 03:08:42;;;;;;;29.80;21.53;;;6.10;99.90;;;;;;5012969;28;20449;-71
2022/03/31 03:11:09;;;;;;;27.40;20.80;;;6.10;99.90;;;;;;5012363;28;20466;-73
2022/03/31 03:13:36;;;;;;;28.33;20.07;;;6.10;99.90;;;;;;5012610;28;20441;-70
2022/03/31 03:16:05;;;;;;;26.37;20.10;;;6.10;99.90;;;;;;5012480;28;20442;-72
2022/03/31 03:18:34;;;;;;;28.53;20.73;;;6.10;99.90;;;;;;5012976;28;20454;-71
2022/03/31 03:21:01;;;;;;;26.70;20.57;;;6.10;99.90;;;;;;5012965;28;21064;-72
2022/03/31 03:23:29;;;;;;;26.33;19.17;;;6.10;99.90;;;;;;5012822;28;20829;-71
2022/03/31 03:25:56;;;;;;;28.07;20.00;;;6.00;99.90;;;;;;5012491;28;20524;-70
2022/03/31 03:28:23;;;;;;;27.37;20.27;;;6.00;99.90;;;;;;5012953;28;20541;-70
2022/03/31 03:30:50;;;;;;;30.23;20.80;;;6.00;99.90;;;;;;5013050;28;20472;-71
2022/03/31 03:33:17;;;;;;;29.87;21.77;;;6.00;99.90;;;;;;5012361;28;20454;-71
2022/03/31 03:35:43;;;;;;;24.87;18.97;;;6.00;99.90;;;;;;5012105;28;20492;-71
2022/03/31 03:38:10;;;;;;;26.73;20.03;;;5.90;99.90;;;;;;5012747;28;20454;-72
2022/03/31 03:40:39;;;;;;;27.37;21.90;;;6.00;99.90;;;;;;5012300;28;20465;-73
2022/03/31 03:43:06;;;;;;;23.53;19.10;;;5.90;99.90;;;;;;5012065;28;20446;-73
2022/03/31 03:45:34;;;;;;;26.33;18.90;;;6.00;99.90;;;;;;5011712;28;20464;-71
2022/03/31 03:48:01;;;;;;;27.33;19.43;;;6.00;99.90;;;;;;5012510;28;20454;-71
2022/03/31 03:50:28;;;;;;;27.10;20.90;;;6.00;99.90;;;;;;5010163;28;20456;-72
2022/03/31 03:52:54;;;;;;;27.10;18.87;;;6.00;99.90;;;;;;5012320;28;21130;-72
2022/03/31 03:55:21;;;;;;;27.77;21.23;;;6.00;99.90;;;;;;5010877;28;20500;-72
2022/03/31 03:57:50;;;;;;;24.23;19.47;;;6.00;99.90;;;;;;5011004;28;20529;-72
2022/03/31 04:00:18;;;;;;;25.10;19.00;;;6.10;99.90;;;;;;5011733;28;20453;-71
2022/03/31 04:02:45;;;;;;;24.90;18.70;;;6.10;99.90;;;;;;5011528;28;20858;-72
2022/03/31 04:05:12;;;;;;;21.03;17.70;;;6.10;99.90;;;;;;5011384;28;20451;-72
2022/03/31 04:07:39;;;;;;;24.63;19.13;;;6.10;99.90;;;;;;5012091;28;20557;-72
2022/03/31 04:10:08;;;;;;;24.53;19.43;;;6.10;99.90;;;;;;5011914;28;20458;-71
2022/03/31 04:12:35;;;;;;;25.03;19.10;;;6.10;99.90;;;;;;5011785;28;20488;-71
2022/03/31 04:15:04;;;;;;;26.20;19.23;;;6.00;99.90;;;;;;5010768;28;20482;-71
2022/03/31 04:17:31;;;;;;;21.40;16.87;;;6.00;99.90;;;;;;5011516;28;20445;-72
2022/03/31 04:19:58;;;;;;;23.77;18.30;;;6.00;99.90;;;;;;5011819;28;20452;-71
2022/03/31 04:22:25;;;;;;;22.23;17.57;;;6.00;99.90;;;;;;5011164;28;20584;-71
2022/03/31 04:24:52;;;;;;;25.17;18.70;;;6.00;99.90;;;;;;5010822;28;20450;-72
2022/03/31 04:27:19;;;;;;;21.57;18.13;;;6.00;99.90;;;;;;5011232;28;20454;-71
2022/03/31 04:29:46;;;;;;;21.10;17.47;;;6.00;99.90;;;;;;5012673;28;20477;-73
2022/03/31 04:32:14;;;;;;;21.40;16.57;;;5.90;99.90;;;;;;5010915;28;20469;-73
2022/03/31 04:34:41;;;;;;;24.50;17.27;;;6.00;99.90;;;;;;5010441;28;20485;-71
2022/03/31 04:37:08;;;;;;;19.70;16.67;;;6.00;99.90;;;;;;5008398;28;20944;-73
2022/03/31 04:39:35;;;;;;;21.27;18.13;;;6.00;99.90;;;;;;5010026;28;20464;-71
2022/03/31 04:42:02;;;;;;;19.20;16.00;;;5.90;99.90;;;;;;5006461;28;20474;-70
2022/03/31 04:44:29;;;;;;;19.77;15.37;;;5.90;99.90;;;;;;5009766;28;20978;-71
2022/03/31 04:46:56;;;;;;;20.13;15.87;;;5.90;99.90;;;;;;5010609;28;20463;-70
2022/03/31 04:49:24;;;;;;;23.40;16.67;;;5.90;99.90;;;;;;5013434;28;20481;-70
2022/03/31 04:51:51;;;;;;;25.30;16.70;;;5.90;99.90;;;;;;5010703;28;21032;-71
2022/03/31 04:54:18;;;;;;;24.30;17.10;;;5.90;99.90;;;;;;5010233;28;20871;-71
2022/03/31 04:56:45;;;;;;;17.83;15.43;;;5.90;99.90;;;;;;5010149;28;20439;-71
2022/03/31 04:59:12;;;;;;;25.57;18.40;;;5.90;99.90;;;;;;5006813;28;20456;-71
2022/03/31 05:01:39;;;;;;;22.20;17.30;;;5.90;99.90;;;;;;5002368;28;21121;-71
2022/03/31 05:04:06;;;;;;;24.63;18.87;;;5.90;99.90;;;;;;4997012;28;20455;-72
2022/03/31 05:06:34;;;;;;;21.10;17.23;;;5.90;99.90;;;;;;4997480;28;20526;-71
2022/03/31 05:09:01;;;;;;;22.80;18.07;;;5.90;99.90;;;;;;4999467;28;20464;-71
2022/03/31 05:11:30;;;;;;;22.93;16.97;;;5.90;99.90;;;;;;4995126;28;20470;-72
2022/03/31 05:13:57;;;;;;;24.13;16.87;;;5.90;99.90;;;;;;5009807;28;20964;-72
2022/03/31 05:16:24;;;;;;;22.40;17.67;;;5.80;99.90;;;;;;5009066;28;20488;-72
2022/03/31 05:18:51;;;;;;;27.10;18.37;;;5.80;99.90;;;;;;5010492;28;20445;-73
2022/03/31 05:21:18;;;;;;;24.57;17.27;;;5.80;99.90;;;;;;5008463;28;20507;-74
2022/03/31 05:23:46;;;;;;;24.63;19.03;;;5.80;99.90;;;;;;5006730;28;20450;-73
2022/03/31 05:26:13;;;;;;;22.83;18.00;;;5.80;99.90;;;;;;5009895;28;20533;-72
2022/03/31 05:28:40;;;;;;;24.00;19.10;;;5.90;99.90;;;;;;5010184;28;20541;-70
2022/03/31 05:31:07;;;;;;;21.83;17.97;;;5.90;99.90;;;;;;5010588;28;20838;-73
2022/03/31 05:33:34;;;;;;;24.43;18.37;;;5.90;99.90;;;;;;5009295;28;20448;-73
2022/03/31 05:36:01;;;;;;;24.47;18.63;;;5.90;99.90;;;;;;5009440;28;21025;-72
2022/03/31 05:38:28;;;;;;;26.10;19.17;;;6.00;99.90;;;;;;5010209;28;20532;-72
2022/03/31 05:40:56;;;;;;;23.97;18.10;;;6.00;99.90;;;;;;5010523;28;20561;-72
2022/03/31 05:43:23;;;;;;;21.20;17.30;;;6.00;99.90;;;;;;5010068;28;20500;-72
2022/03/31 05:45:50;;;;;;;25.17;19.30;;;6.00;99.90;;;;;;5009370;28;20822;-71
2022/03/31 05:48:17;;;;;;;22.73;18.07;;;6.00;99.90;;;;;;5010083;28;21027;-73
2022/03/31 05:50:44;;;;;;;23.80;19.00;;;6.10;99.90;;;;;;5010057;28;20500;-73
2022/03/31 05:53:13;;;;;;;24.07;18.40;;;6.10;99.90;;;;;;5010099;28;20508;-73
2022/03/31 05:55:40;;;;;;;25.13;18.67;;;6.20;99.90;;;;;;5009371;28;20486;-73
2022/03/31 05:58:09;;;;;;;24.20;17.37;;;6.20;99.90;;;;;;5010168;28;20492;-73
2022/03/31 06:00:36;;;;;;;22.43;17.40;;;6.20;99.90;;;;;;5009886;28;20460;-72
2022/03/31 06:03:03;;;;;;;26.93;19.60;;;6.20;99.90;;;;;;5009425;28;20537;-74
2022/03/31 06:05:30;;;;;;;23.30;16.73;;;6.20;99.90;;;;;;5009124;28;20540;-73
2022/03/31 06:07:57;;;;;;;21.90;17.57;;;6.20;99.90;;;;;;5009756;28;20450;-73
2022/03/31 06:10:24;;;;;;;25.47;20.00;;;6.30;99.90;;;;;;5009663;28;20449;-73
2022/03/31 06:12:51;;;;;;;22.33;17.90;;;6.30;99.90;;;;;;5009528;28;20891;-72
2022/03/31 06:15:19;;;;;;;21.47;17.43;;;6.30;99.90;;;;;;5008899;28;20481;-72
2022/03/31 06:17:46;;;;;;;22.57;18.30;;;6.30;99.90;;;;;;5009704;28;20842;-73
2022/03/31 06:20:14;;;;;;;24.53;19.13;;;6.30;99.90;;;;;;5010453;28;20511;-72
2022/03/31 06:22:41;;;;;;;24.97;17.93;;;6.30;99.90;;;;;;5013502;28;20469;-72
2022/03/31 06:25:10;;;;;;;26.17;19.47;;;6.30;99.90;;;;;;5013102;28;20455;-73
2022/03/31 06:27:38;;;;;;;23.00;17.40;;;6.20;99.90;;;;;;5013544;28;21125;-72
2022/03/31 06:30:06;;;;;;;23.60;18.90;;;6.20;99.90;;;;;;5013422;28;20461;-73
2022/03/31 06:32:34;;;;;;;23.53;18.77;;;6.20;99.90;;;;;;5012846;28;20473;-73
2022/03/31 06:35:01;;;;;;;24.20;18.20;;;6.30;99.90;;;;;;5012566;28;20579;-72
2022/03/31 06:37:28;;;;;;;24.60;18.50;;;6.40;99.90;;;;;;5013448;28;20457;-72
2022/03/31 06:39:55;;;;;;;25.07;18.73;;;6.40;99.90;;;;;;5013403;28;20543;-72
2022/03/31 06:42:22;;;;;;;23.57;18.90;;;6.50;99.90;;;;;;5012863;28;20462;-73
2022/03/31 06:44:49;;;;;;;25.40;17.50;;;6.60;99.90;;;;;;5012314;28;20525;-73
2022/03/31 06:47:16;;;;;;;25.87;19.23;;;6.70;99.90;;;;;;5013302;28;20465;-72
2022/03/31 06:49:44;;;;;;;24.93;18.77;;;6.70;99.90;;;;;;5013170;28;20553;-73
2022/03/31 06:52:11;;;;;;;21.57;17.17;;;6.60;99.90;;;;;;5012679;28;20569;-73
2022/03/31 06:54:38;;;;;;;25.40;19.20;;;6.60;99.90;;;;;;5012385;28;20449;-73
2022/03/31 06:57:05;;;;;;;25.43;20.13;;;6.70;99.90;;;;;;5012774;28;20515;-73
2022/03/31 06:59:32;;;;;;;22.60;17.87;;;6.80;99.90;;;;;;5012821;28;20456;-73
2022/03/31 07:01:59;;;;;;;23.03;16.80;;;6.90;99.90;;;;;;5012753;28;20457;-74
2022/03/31 07:04:26;;;;;;;25.40;19.80;;;6.90;99.90;;;;;;5012671;28;20458;-73
2022/03/31 07:06:54;;;;;;;22.40;18.10;;;7.00;99.90;;;;;;5013213;28;20850;-73
2022/03/31 07:09:21;;;;;;;22.87;17.50;;;7.00;99.90;;;;;;5013137;28;20533;-74
2022/03/31 07:11:48;;;;;;;23.10;17.80;;;7.20;99.90;;;;;;5012559;28;20877;-72
2022/03/31 07:14:14;;;;;;;25.13;18.20;;;7.30;99.90;;;;;;5012567;28;20452;-73
2022/03/31 07:16:41;;;;;;;22.17;17.87;;;7.40;99.90;;;;;;5012959;28;20517;-73
2022/03/31 07:19:08;;;;;;;23.90;18.50;;;7.40;99.90;;;;;;5012754;28;20541;-74
2022/03/31 07:21:35;;;;;;;23.60;17.93;;;7.60;99.90;;;;;;5012390;28;20458;-72
2022/03/31 07:24:03;;;;;;;22.30;17.60;;;7.60;99.90;;;;;;5012274;28;20453;-73
2022/03/31 07:26:32;;;;;;;20.23;16.40;;;7.60;99.90;;;;;;5012367;28;20831;-73
2022/03/31 07:28:59;;;;;;;21.17;17.90;;;7.60;99.90;;;;;;5012614;28;20461;-73
2022/03/31 07:31:28;;;;;;;20.93;16.97;;;7.70;99.90;;;;;;5012128;28;21045;-74
2022/03/31 07:33:56;;;;;;;22.43;17.40;;;7.70;99.90;;;;;;5012004;28;20445;-72
2022/03/31 07:36:23;;;;;;;20.90;17.17;;;7.80;99.90;;;;;;5011510;28;20851;-73
2022/03/31 07:38:49;;;;;;;22.23;16.20;;;7.70;99.90;;;;;;5011970;28;20468;-73
2022/03/31 07:41:18;;;;;;;22.60;18.60;;;7.60;99.90;;;;;;5011873;28;20472;-73
2022/03/31 07:43:45;;;;;;;18.07;15.23;;;7.70;99.90;;;;;;5011836;28;20445;-73
2022/03/31 07:46:12;;;;;;;24.57;19.70;;;7.80;99.90;;;;;;5011544;28;20442;-73
2022/03/31 07:48:39;;;;;;;21.33;16.93;;;7.70;99.90;;;;;;5011996;28;20458;-72
2022/03/31 07:51:06;;;;;;;23.70;18.10;;;7.70;99.90;;;;;;5011928;28;20556;-73
2022/03/31 07:53:33;;;;;;;25.57;18.80;;;7.70;99.90;;;;;;5011547;28;20881;-73
2022/03/31 07:56:00;;;;;;;24.03;18.03;;;7.70;99.90;;;;;;5010878;28;20488;-72
2022/03/31 07:58:29;;;;;;;29.23;17.57;;;7.70;99.90;;;;;;5011876;28;20441;-73
2022/03/31 08:00:56;;;;;;;23.58;17.73;;;7.70;99.90;;;;;;5011923;28;21020;-72
2022/03/31 08:03:23;;;;;;;23.10;19.00;;;7.50;99.90;;;;;;5011623;28;20207;-72
2022/03/31 08:05:51;;;;;;;23.30;18.80;;;7.60;99.90;;;;;;5011327;28;20446;-72
2022/03/31 08:08:18;;;;;;;24.47;17.83;;;7.70;99.90;;;;;;5012022;28;20986;-73
2022/03/31 08:10:45;;;;;;;23.70;18.97;;;7.90;99.90;;;;;;5011957;28;20990;-71
2022/03/31 08:13:12;;;;;;;23.97;17.07;;;8.10;99.90;;;;;;5011481;28;20481;-73
2022/03/31 08:15:41;;;;;;;23.13;18.37;;;8.30;99.90;;;;;;5011067;28;20481;-71
2022/03/31 08:18:08;;;;;;;24.27;19.40;;;8.50;99.90;;;;;;5011870;28;20454;-72
2022/03/31 08:20:35;;;;;;;23.40;18.70;;;8.60;99.90;;;;;;5011794;28;20458;-73
2022/03/31 08:23:02;;;;;;;21.43;18.37;;;8.60;99.90;;;;;;5011266;28;21165;-72
2022/03/31 08:25:29;;;;;;;24.30;19.10;;;8.70;99.90;;;;;;5011282;28;20452;-73
2022/03/31 08:27:55;;;;;;;22.17;17.33;;;8.60;99.90;;;;;;5011761;28;20882;-71
2022/03/31 08:30:23;;;;;;;23.30;17.47;;;8.40;99.90;;;;;;5011673;28;20460;-71
2022/03/31 08:32:52;;;;;;;23.33;17.60;;;8.30;99.90;;;;;;5011336;28;20978;-71
2022/03/31 08:35:19;;;;;;;22.17;17.60;;;8.30;99.90;;;;;;5010547;28;20450;-72
2022/03/31 08:37:47;;;;;;;25.33;19.00;;;8.20;99.90;;;;;;5011792;28;20450;-71
2022/03/31 08:40:15;;;;;;;21.67;17.40;;;7.90;99.90;;;;;;5011421;28;20489;-70
2022/03/31 08:42:43;;;;;;;24.80;18.60;;;7.90;99.90;;;;;;5010563;28;20843;-70
2022/03/31 08:45:12;;;;;;;23.90;18.27;;;7.90;99.90;;;;;;5010759;28;20533;-72
2022/03/31 08:47:41;;;;;;;25.00;18.13;;;7.90;99.90;;;;;;5011165;28;20454;-71
2022/03/31 08:50:11;;;;;;;23.60;18.67;;;8.10;99.90;;;;;;5011142;28;20458;-71
2022/03/31 08:52:38;;;;;;;23.93;19.10;;;8.20;99.90;;;;;;5011321;28;20474;-71
2022/03/31 08:55:07;;;;;;;22.97;17.83;;;8.50;99.90;;;;;;5010699;28;20544;-72
2022/03/31 08:57:42;;;;;;;22.67;17.40;;;8.70;99.90;;;;;;5011456;28;20577;-72
2022/03/31 09:00:10;;;;;;;22.90;17.43;;;9.00;99.90;;;;;;5011320;28;20445;-73
2022/03/31 09:02:38;;;;;;;24.70;19.40;;;9.10;99.90;;;;;;5011081;28;20493;-71
2022/03/31 09:05:08;;;;;;;21.47;17.30;;;9.20;99.90;;;;;;5011036;28;20493;-71
2022/03/31 09:07:36;;;;;;;25.90;19.30;;;9.40;99.90;;;;;;5011243;28;20445;-72
2022/03/31 09:10:04;;;;;;;21.30;18.50;;;9.20;99.90;;;;;;5011508;28;20884;-72
2022/03/31 09:12:38;;;;;;;22.50;19.27;;;9.10;99.90;;;;;;5010794;28;20507;-72
2022/03/31 09:15:10;;;;;;;23.63;18.10;;;9.00;99.90;;;;;;5010314;28;20529;-74
2022/03/31 09:17:37;;;;;;;22.13;18.70;;;9.00;99.90;;;;;;5011023;28;20489;-71
2022/03/31 09:20:05;;;;;;;24.47;18.73;;;9.10;99.90;;;;;;5010613;28;20452;-72
2022/03/31 09:22:45;;;;;;;23.93;20.17;;;9.10;99.90;;;;;;5010644;28;20478;-72
2022/03/31 09:25:12;;;;;;;25.37;19.53;;;8.90;99.90;;;;;;5009869;28;20458;-70
2022/03/31 09:27:39;;;;;;;21.60;17.40;;;8.90;99.90;;;;;;5011030;28;20864;-71
2022/03/31 09:30:08;;;;;;;24.57;20.00;;;8.90;99.90;;;;;;5010846;28;20464;-70
2022/03/31 09:32:34;;;;;;;25.03;18.90;;;9.10;99.90;;;;;;5009790;28;20484;-70
2022/03/31 09:35:08;;;;;;;23.93;19.33;;;9.20;99.90;;;;;;5009408;28;20822;-70
2022/03/31 09:37:35;;;;;;;24.20;19.90;;;9.40;99.90;;;;;;5010222;28;20485;-70
2022/03/31 09:40:03;;;;;;;28.23;18.87;;;9.30;99.90;;;;;;5009938;28;20498;-71
2022/03/31 09:42:30;;;;;;;23.10;18.47;;;9.40;99.90;;;;;;5010004;28;20468;-70
2022/03/31 09:44:58;;;;;;;26.03;20.03;;;9.70;99.90;;;;;;5010285;28;20453;-71
2022/03/31 09:47:28;;;;;;;21.20;17.87;;;9.80;99.90;;;;;;5010752;28;20441;-71
2022/03/31 09:49:55;;;;;;;23.80;19.30;;;9.90;99.90;;;;;;5011065;28;20512;-70
2022/03/31 09:52:23;;;;;;;21.70;18.23;;;10.20;99.90;;;;;;5009569;28;20999;-71
2022/03/31 09:54:50;;;;;;;23.63;19.43;;;10.20;99.90;;;;;;5009864;28;20827;-72
2022/03/31 09:57:22;;;;;;;24.33;19.67;;;10.60;99.90;;;;;;5014203;28;20505;-70
2022/03/31 09:59:52;;;;;;;23.03;18.50;;;10.80;99.90;;;;;;5014037;28;20453;-69
2022/03/31 10:02:20;;;;;;;22.07;18.33;;;11.00;99.90;;;;;;5013397;28;20469;-71
2022/03/31 10:04:47;;;;;;;22.90;18.37;;;11.00;99.90;;;;;;5013181;28;20459;-70
2022/03/31 10:07:14;;;;;;;20.77;17.77;;;11.20;99.90;;;;;;5013645;28;20449;-71
2022/03/31 10:09:43;;;;;;;20.50;16.40;;;11.70;99.90;;;;;;5013963;28;20645;-69
2022/03/31 10:12:18;;;;;;;22.20;18.90;;;12.00;99.90;;;;;;5006425;28;21007;-69
2022/03/31 10:14:53;;;;;;;21.27;18.93;;;12.50;99.90;;;;;;5020870;28;20517;-70
2022/03/31 10:17:26;;;;;;;22.10;19.53;;;12.10;99.90;;;;;;5012817;28;20480;-70
2022/03/31 10:19:54;;;;;;;21.87;19.37;;;11.90;99.90;;;;;;5013295;28;20445;-72
2022/03/31 10:25:08;;;;;;;22.80;18.57;;;12.10;99.90;;;;;;5012855;28;20408;-70
2022/03/31 10:27:37;;;;;;;20.70;18.50;;;12.90;99.90;;;;;;5013934;28;20446;-71
2022/03/31 10:30:16;;;;;;;24.23;19.60;;;13.60;99.90;;;;;;5013581;28;20601;-69
2022/03/31 10:32:56;;;;;;;23.13;18.03;;;14.00;99.90;;;;;;5013266;28;20496;-70
2022/03/31 10:35:25;;;;;;;24.57;19.27;;;14.10;99.90;;;;;;5012765;28;20453;-69
2022/03/31 10:37:53;;;;;;;19.60;17.60;;;14.20;99.90;;;;;;5013321;28;20508;-69
2022/03/31 10:40:32;;;;;;;20.83;18.70;;;14.40;99.90;;;;;;5013243;28;20836;-68
2022/03/31 10:43:00;;;;;;;19.07;16.87;;;13.90;99.90;;;;;;5013122;28;20455;-72
2022/03/31 10:45:40;;;;;;;20.50;18.30;;;13.70;99.90;;;;;;5012364;28;20446;-71
2022/03/31 10:48:16;;;;;;;31.97;18.00;;;13.40;99.90;;;;;;5005468;28;20437;-70
2022/03/31 10:50:44;;;;;;;22.03;18.00;;;13.00;99.90;;;;;;5012446;28;20548;-69
2022/03/31 10:53:10;;;;;;;19.63;16.87;;;12.70;99.90;;;;;;5012638;28;21109;-69
2022/03/31 10:55:40;;;;;;;20.63;18.43;;;12.70;99.90;;;;;;5012388;28;20452;-70
2022/03/31 10:58:19;;;;;;;19.77;17.67;;;12.80;99.90;;;;;;5012786;28;20481;-69
2022/03/31 11:00:49;;;;;;;21.50;18.27;;;13.00;99.90;;;;;;5012801;28;20553;-70
2022/03/31 11:03:18;;;;;;;23.20;17.63;;;12.90;99.90;;;;;;5012215;28;20508;-69
2022/03/31 11:05:45;;;;;;;21.53;18.73;;;13.10;99.90;;;;;;5010088;28;20500;-68
2022/03/31 11:08:17;;;;;;;21.77;18.90;;;12.70;99.90;;;;;;5003799;28;20469;-70
2022/03/31 11:10:45;;;;;;;25.00;19.33;;;12.70;99.90;;;;;;5010376;28;20523;-69
2022/03/31 11:13:13;;;;;;;21.63;18.40;;;12.20;99.90;;;;;;5010530;28;20445;-68
2022/03/31 11:15:40;;;;;;;20.97;17.80;;;12.20;99.90;;;;;;5007650;28;20445;-69
2022/03/31 11:18:10;;;;;;;23.73;19.57;;;12.10;99.90;;;;;;5004043;28;20485;-68
2022/03/31 11:20:36;;;;;;;21.57;17.90;;;12.00;99.90;;;;;;5006631;28;20504;-68
2022/03/31 11:23:06;;;;;;;23.60;18.73;;;11.80;99.90;;;;;;5002683;28;20977;-69
2022/03/31 11:25:34;;;;;;;20.90;17.70;;;11.90;99.90;;;;;;5002556;28;20545;-67
2022/03/31 11:28:08;;;;;;;19.80;17.17;;;12.10;99.90;;;;;;5002904;28;20458;-66
2022/03/31 11:30:35;;;;;;;22.07;18.23;;;12.10;99.90;;;;;;5000441;28;20513;-67
2022/03/31 11:33:03;;;;;;;25.67;19.77;;;12.30;99.90;;;;;;4997598;28;20547;-69
2022/03/31 11:35:32;;;;;;;24.20;19.13;;;12.60;99.90;;;;;;5001264;28;21015;-68
2022/03/31 11:38:01;;;;;;;21.60;18.70;;;12.30;99.90;;;;;;5006464;28;20576;-69
2022/03/31 11:40:29;;;;;;;21.17;17.93;;;12.20;99.90;;;;;;5010157;28;20836;-67
2022/03/31 11:42:58;;;;;;;22.30;18.47;;;12.30;99.90;;;;;;5011330;28;20450;-68
2022/03/31 11:45:31;;;;;;;23.80;19.47;;;12.10;99.90;;;;;;5009492;28;20548;-73
2022/03/31 11:47:59;;;;;;;20.97;18.70;;;11.80;99.90;;;;;;5010183;28;20458;-68
2022/03/31 11:50:27;;;;;;;24.87;18.80;;;11.60;99.90;;;;;;5008972;28;20825;-67
2022/03/31 11:52:56;;;;;;;24.33;18.90;;;11.60;99.90;;;;;;5012068;28;20433;-67
2022/03/31 11:55:23;;;;;;;26.03;20.57;;;11.50;99.90;;;;;;5011293;28;20972;-68
2022/03/31 11:57:58;;;;;;;24.40;19.60;;;11.30;99.90;;;;;;5014224;28;20568;-67
2022/03/31 12:00:27;;;;;;;22.60;19.20;;;11.30;99.90;;;;;;5012155;28;20445;-67
2022/03/31 12:03:02;;;;;;;23.33;19.30;;;11.30;99.90;;;;;;5013202;28;20473;-67
2022/03/31 12:05:30;;;;;;;26.00;20.83;;;11.40;99.90;;;;;;5007198;28;20833;-68
2022/03/31 12:07:59;;;;;;;22.57;18.63;;;11.50;99.90;;;;;;5010126;28;20535;-68
2022/03/31 12:10:27;;;;;;;25.23;19.80;;;11.40;99.90;;;;;;5009874;28;20446;-68
2022/03/31 12:12:55;;;;;;;22.60;20.17;;;11.30;99.90;;;;;;5008508;28;20477;-69
2022/03/31 12:15:24;;;;;;;25.53;19.63;;;11.10;99.90;;;;;;5007793;28;20460;-69
2022/03/31 12:18:02;;;;;;;25.37;19.10;;;11.20;99.90;;;;;;5007839;28;20484;-69
2022/03/31 12:20:30;;;;;;;20.53;17.53;;;11.40;99.90;;;;;;5006679;28;20955;-69
2022/03/31 12:22:59;;;;;;;20.50;17.20;;;11.50;99.90;;;;;;5006762;28;20452;-69
2022/03/31 12:25:34;;;;;;;23.47;19.00;;;11.60;99.90;;;;;;5008870;28;20542;-69
2022/03/31 12:28:04;;;;;;;24.30;18.43;;;11.80;99.90;;;;;;5008948;28;20438;-69
2022/03/31 12:30:47;;;;;;;21.47;18.97;;;11.70;99.90;;;;;;5011187;28;20565;-69
2022/03/31 12:33:26;;;;;;;19.50;16.67;;;11.70;99.90;;;;;;5009861;28;20899;-69
2022/03/31 12:36:00;;;;;;;20.63;17.60;;;11.90;99.90;;;;;;5007831;28;20438;-68
2022/03/31 12:38:36;;;;;;;23.67;18.50;;;11.80;99.90;;;;;;4999299;28;20494;-69
2022/03/31 12:41:04;;;;;;;21.43;18.20;;;11.80;99.90;;;;;;5007666;28;20854;-68
2022/03/31 12:43:31;;;;;;;24.73;17.90;;;11.60;99.90;;;;;;5005599;28;20468;-69
2022/03/31 12:45:58;;;;;;;25.53;19.80;;;11.60;99.90;;;;;;5021097;28;20451;-67